TimeCDT,TemperatureF,Dew PointF,Humidity,Sea Level PressureIn,VisibilityMPH,Wind Direction,Wind SpeedMPH,Gust SpeedMPH,PrecipitationIn,Events,Conditions,WindDirDegrees,DateUTC
12:52 AM,44.1,37.0,76,30.05,10.0,Calm,Calm,-,N/A,,Clear,0,2013-03-15 05:52:00
2:52 AM,45.0,37.9,76,30.00,10.0,Calm,Calm,-,N/A,,Clear,0,2013-03-15 07:52:00
3:52 AM,39.9,35.1,83,29.97,10.0,Calm,Calm,-,N/A,,Clear,0,2013-03-15 08:52:00
4:52 AM,43.0,37.0,80,29.94,10.0,Calm,Calm,-,N/A,,Clear,0,2013-03-15 09:52:00
5:52 AM,41.0,36.0,82,29.93,10.0,Calm,Calm,-,N/A,,Clear,0,2013-03-15 10:52:00
6:52 AM,46.0,37.9,73,29.92,10.0,Calm,Calm,-,N/A,,Clear,0,2013-03-15 11:52:00
7:52 AM,48.9,39.0,69,29.92,10.0,Calm,Calm,-,N/A,,Clear,0,2013-03-15 12:52:00
8:52 AM,50.0,41.0,71,29.92,10.0,Calm,Calm,-,N/A,,Clear,0,2013-03-15 13:52:00
9:52 AM,59.0,39.9,49,29.90,10.0,West,4.6,-,N/A,,Clear,260,2013-03-15 14:52:00
10:52 AM,66.9,39.0,36,29.87,10.0,WSW,8.1,-,N/A,,Clear,250,2013-03-15 15:52:00
11:52 AM,75.0,39.0,27,29.85,10.0,SW,6.9,-,N/A,,Clear,220,2013-03-15 16:52:00
12:52 PM,80.1,35.1,20,29.82,10.0,West,11.5,-,N/A,,Clear,260,2013-03-15 17:52:00
1:52 PM,82.9,30.9,15,29.78,10.0,SW,11.5,19.6,N/A,,Clear,230,2013-03-15 18:52:00
2:52 PM,86.0,30.0,13,29.73,10.0,SSW,16.1,24.2,N/A,,Clear,210,2013-03-15 19:52:00
3:52 PM,84.9,28.0,13,29.69,10.0,SW,15.0,-,N/A,,Clear,230,2013-03-15 20:52:00
4:52 PM,84.9,30.0,14,29.69,10.0,SW,16.1,23.0,N/A,,Clear,230,2013-03-15 21:52:00
5:52 PM,81.0,42.1,25,29.68,10.0,SSW,21.9,-,N/A,,Clear,200,2013-03-15 22:52:00
6:52 PM,75.9,44.1,32,29.68,10.0,SSW,8.1,-,N/A,,Clear,200,2013-03-15 23:52:00
7:52 PM,70.0,43.0,38,29.67,10.0,South,3.5,-,N/A,,Clear,190,2013-03-16 00:52:00
8:52 PM,64.9,43.0,45,29.68,10.0,SSE,3.5,-,N/A,,Clear,150,2013-03-16 01:52:00
9:52 PM,57.0,43.0,59,29.69,10.0,Calm,Calm,-,N/A,,Clear,0,2013-03-16 02:52:00
10:52 PM,57.0,45.0,64,29.68,10.0,Calm,Calm,-,N/A,,Clear,0,2013-03-16 03:52:00
11:52 PM,57.0,45.0,64,29.68,10.0,NW,3.5,-,N/A,,Clear,320,2013-03-16 04:52:00